Time;durP1;ratioP1;P1;durP2;ratioP2;P2;SDS_P1;SDS_P2;PMS_P1;PMS_P2;Temp;Humidity;BMP_temperature;BMP_pressure;BME280_temperature;BME280_humidity;BME280_pressure;Samples;Min_cycle;Max_cycle;Signal;HPM_P1;HPM_P2
2023/03/28 00:00:11;;;;;;;15.80;6.10;;;;;;;-2.01;86.36;99279.80;106376;1286;66679;-66
2023/03/28 00:03:17;;;;;;;13.00;5.20;;;;;;;-1.99;86.37;99272.11;106371;1286;72843;-64
2023/03/28 00:06:10;;;;;;;15.20;5.10;;;;;;;-1.97;86.60;99272.69;105694;1286;1003059;-64
2023/03/28 00:08:57;;;;;;;14.40;5.80;;;;;;;-1.96;86.65;99267.27;105733;1286;1002995;-66
2023/03/28 00:11:44;;;;;;;14.80;6.30;;;;;;;-1.95;86.72;99271.73;106291;1287;69759;-66
2023/03/28 00:14:30;;;;;;;16.60;4.90;;;;;;;-1.94;87.00;99268.91;105647;1286;1002692;-66
2023/03/28 00:17:17;;;;;;;15.20;5.80;;;;;;;-1.89;87.33;99270.11;105793;1286;1002561;-65
2023/03/28 00:20:04;;;;;;;14.00;5.20;;;;;;;-1.88;87.43;99262.94;106338;1287;58397;-64
2023/03/28 00:22:53;;;;;;;18.90;7.00;;;;;;;-1.82;87.63;99264.95;105628;1286;1003124;-66
2023/03/28 00:25:42;;;;;;;16.70;6.00;;;;;;;-1.77;87.34;99260.75;105640;1286;1002160;-65
2023/03/28 00:28:29;;;;;;;17.30;7.10;;;;;;;-1.71;87.45;99260.17;105699;1286;1002864;-65
2023/03/28 00:31:15;;;;;;;15.80;5.70;;;;;;;-1.63;87.07;99260.23;106599;1286;72747;-65
2023/03/28 00:34:03;;;;;;;12.30;5.50;;;;;;;-1.63;87.13;99245.96;106408;1287;57314;-66
2023/03/28 00:36:49;;;;;;;15.00;6.30;;;;;;;-1.53;87.41;99255.98;106504;1286;59010;-64
2023/03/28 00:39:36;;;;;;;13.20;5.70;;;;;;;-1.45;87.77;99256.00;106260;1286;72387;-65
2023/03/28 00:42:23;;;;;;;12.50;5.30;;;;;;;-1.41;87.82;99251.98;106436;1286;68093;-65
2023/03/28 00:45:12;;;;;;;14.20;4.50;;;;;;;-1.37;87.79;99250.80;105611;1286;1002674;-64
2023/03/28 00:48:06;;;;;;;14.50;5.70;;;;;;;-1.35;87.88;99256.48;105589;1287;1002452;-67
2023/03/28 00:51:02;;;;;;;13.90;5.10;;;;;;;-1.33;87.95;99250.12;106484;1286;59036;-66
2023/03/28 00:53:51;;;;;;;14.60;5.50;;;;;;;-1.32;88.01;99251.45;106426;1286;72153;-66
2023/03/28 00:56:42;;;;;;;14.40;6.20;;;;;;;-1.33;87.78;99258.33;106431;1287;67825;-68
2023/03/28 00:59:32;;;;;;;16.70;7.10;;;;;;;-1.37;88.05;99255.69;106422;1286;71208;-69
2023/03/28 01:02:19;;;;;;;16.50;6.80;;;;;;;-1.39;88.14;99260.80;106417;1286;57070;-68
2023/03/28 01:05:08;;;;;;;16.60;7.20;;;;;;;-1.40;87.94;99260.85;106337;1286;59428;-67
2023/03/28 01:08:05;;;;;;;17.10;6.90;;;;;;;-1.42;88.39;99263.52;106301;1288;72392;-69
2023/03/28 01:10:53;;;;;;;15.50;6.20;;;;;;;-1.36;88.38;99269.91;106466;1286;67700;-68
2023/03/28 01:13:46;;;;;;;15.30;7.00;;;;;;;-1.35;88.56;99274.75;105538;1287;1002813;-68
2023/03/28 01:16:40;;;;;;;18.30;8.20;;;;;;;-1.36;88.62;99272.68;106370;1286;57571;-66
2023/03/28 01:20:02;;;;;;;18.20;6.60;;;;;;;-1.35;88.70;99275.98;106469;1288;58665;-66
2023/03/28 01:23:10;;;;;;;18.00;7.30;;;;;;;-1.34;88.83;99277.16;106290;1286;70913;-65
2023/03/28 01:26:22;;;;;;;12.50;6.00;;;;;;;-1.35;88.94;99278.23;106426;1286;68020;-67
2023/03/28 01:29:32;;;;;;;14.90;6.00;;;;;;;-1.40;88.83;99275.10;106386;1286;71927;-67
2023/03/28 01:33:04;;;;;;;15.70;5.70;;;;;;;-1.45;89.31;99276.88;105984;1292;57120;-67
2023/03/28 01:36:51;;;;;;;14.70;6.80;;;;;;;-1.48;89.60;99278.92;105955;1293;59204;-66
2023/03/28 01:40:23;;;;;;;13.20;6.50;;;;;;;-1.51;89.84;99281.29;105855;1294;72064;-66
2023/03/28 01:43:41;;;;;;;15.60;6.20;;;;;;;-1.55;90.03;99281.63;104823;1298;1002396;-66
2023/03/28 01:47:00;;;;;;;17.10;6.40;;;;;;;-1.57;90.19;99283.99;105579;1297;72713;-66
2023/03/28 01:50:09;;;;;;;17.70;6.20;;;;;;;-1.57;90.55;99282.05;105432;1298;59700;-66
2023/03/28 01:53:07;;;;;;;14.90;5.90;;;;;;;-1.58;90.51;99287.52;105637;1298;58196;-66
2023/03/28 01:55:53;;;;;;;15.70;5.50;;;;;;;-1.61;90.48;99290.91;105725;1297;72252;-66
2023/03/28 01:58:58;;;;;;;12.00;4.80;;;;;;;-1.62;90.86;99291.31;105736;1297;66837;-68
2023/03/28 02:02:13;;;;;;;10.50;3.70;;;;;;;-1.67;90.92;99297.61;105573;1298;71191;-64
2023/03/28 02:05:07;;;;;;;9.70;3.50;;;;;;;-1.73;91.63;99305.31;105610;1298;58306;-67
2023/03/28 02:07:59;;;;;;;10.40;3.60;;;;;;;-1.79;91.61;99307.31;104836;1298;1002210;-67
2023/03/28 02:10:57;;;;;;;8.20;3.00;;;;;;;-1.83;91.71;99306.95;105814;1292;71437;-68
2023/03/28 02:14:04;;;;;;;7.80;2.60;;;;;;;-1.90;91.58;99313.09;105943;1294;66365;-65
2023/03/28 02:17:27;;;;;;;5.10;1.70;;;;;;;-1.98;91.77;99315.49;105690;1294;72755;-67
2023/03/28 02:20:48;;;;;;;7.00;2.00;;;;;;;-2.06;91.71;99323.42;106376;1286;57292;-71
2023/03/28 02:23:55;;;;;;;5.20;1.70;;;;;;;-2.10;91.87;99321.34;106538;1286;59063;-64
2023/03/28 02:27:00;;;;;;;6.50;2.00;;;;;;;-2.10;92.01;99328.65;106327;1286;73274;-65
2023/03/28 02:29:56;;;;;;;7.70;1.90;;;;;;;-2.08;92.30;99327.17;106307;1286;67862;-65
2023/03/28 02:33:03;;;;;;;6.20;1.80;;;;;;;-2.05;91.93;99331.08;106375;1286;70718;-68
2023/03/28 02:36:02;;;;;;;6.10;1.70;;;;;;;-2.02;92.05;99331.98;106307;1288;57274;-67
2023/03/28 02:39:00;;;;;;;5.70;1.60;;;;;;;-1.99;91.84;99328.25;106386;1286;60519;-68
2023/03/28 02:42:19;;;;;;;5.00;1.50;;;;;;;-1.99;91.56;99334.16;106631;1286;72862;-67
2023/03/28 02:45:25;;;;;;;5.20;1.30;;;;;;;-2.01;91.49;99336.11;106541;1287;67742;-67
2023/03/28 02:48:22;;;;;;;4.90;1.40;;;;;;;-2.01;91.67;99334.91;106412;1286;71285;-66
2023/03/28 02:51:24;;;;;;;4.80;1.40;;;;;;;-2.03;91.71;99334.83;106461;1286;57017;-68
2023/03/28 02:54:31;;;;;;;6.10;1.80;;;;;;;-2.04;91.79;99335.56;106508;1286;59031;-67
2023/03/28 02:57:57;;;;;;;6.20;1.80;;;;;;;-2.05;91.55;99337.48;106218;1286;70967;-64
2023/03/28 03:00:44;;;;;;;5.70;1.80;;;;;;;-2.04;91.56;99340.23;106440;1286;68073;-63
2023/03/28 03:03:32;;;;;;;5.50;1.50;;;;;;;-2.02;91.50;99350.77;106324;1286;72891;-63
2023/03/28 03:06:19;;;;;;;5.00;1.50;;;;;;;-2.03;91.03;99356.71;106405;1286;58686;-65
2023/03/28 03:09:07;;;;;;;5.00;1.40;;;;;;;-2.06;91.19;99357.86;106431;1286;60363;-64
2023/03/28 03:11:53;;;;;;;4.40;1.20;;;;;;;-2.07;91.21;99361.73;106490;1286;72187;-62
2023/03/28 03:14:40;;;;;;;3.90;1.00;;;;;;;-2.09;90.93;99365.09;106410;1291;68446;-63
2023/03/28 03:17:47;;;;;;;4.60;1.10;;;;;;;-2.15;90.56;99371.06;105766;1286;1002076;-63
2023/03/28 03:20:34;;;;;;;4.90;1.30;;;;;;;-2.20;90.62;99371.41;106408;1289;57048;-65
2023/03/28 03:23:21;;;;;;;5.00;1.30;;;;;;;-2.23;90.70;99370.48;105721;1286;1002177;-67
2023/03/28 03:26:11;;;;;;;5.20;1.60;;;;;;;-2.30;90.52;99367.79;106329;1287;72246;-67
2023/03/28 03:29:11;;;;;;;4.70;1.40;;;;;;;-2.37;90.46;99370.30;106397;1286;66586;-65
2023/03/28 03:31:58;;;;;;;4.80;1.20;;;;;;;-2.42;90.62;99380.02;106445;1286;72826;-64
2023/03/28 03:35:05;;;;;;;5.70;1.30;;;;;;;-2.50;90.65;99383.77;106437;1286;57280;-66
2023/03/28 03:37:52;;;;;;;2.30;1.10;;;;;;;-2.60;90.53;99386.70;105640;1286;1002493;-67
2023/03/28 03:40:39;;;;;;;5.20;1.40;;;;;;;-2.69;90.65;99389.98;106324;1286;70941;-67
2023/03/28 03:43:26;;;;;;;6.20;1.30;;;;;;;-2.80;90.87;99392.42;106463;1286;67911;-68
2023/03/28 03:46:13;;;;;;;6.70;1.60;;;;;;;-2.92;91.10;99391.61;106417;1286;70386;-67
2023/03/28 03:49:00;;;;;;;6.00;1.70;;;;;;;-3.02;91.10;99395.77;106356;1286;57686;-65
2023/03/28 03:51:46;;;;;;;5.70;1.60;;;;;;;-3.13;91.45;99399.77;106501;1286;60187;-66
2023/03/28 03:54:35;;;;;;;5.50;1.60;;;;;;;-3.23;91.83;99402.16;106242;1286;72369;-66
2023/03/28 03:57:24;;;;;;;5.50;1.50;;;;;;;-3.33;92.09;99402.11;106329;1286;67817;-66
2023/03/28 04:00:17;;;;;;;5.60;1.60;;;;;;;-3.41;92.39;99403.09;106370;1286;72677;-66
2023/03/28 04:03:07;;;;;;;4.90;1.50;;;;;;;-3.50;92.50;99408.35;106445;1286;57018;-66
2023/03/28 04:06:10;;;;;;;5.90;1.40;;;;;;;-3.58;92.77;99413.99;106469;1286;58288;-67
2023/03/28 04:08:57;;;;;;;5.90;2.00;;;;;;;-3.65;93.60;99416.45;105682;1286;1002797;-65
2023/03/28 04:11:58;;;;;;;5.80;1.60;;;;;;;-3.75;93.69;99413.79;106137;1291;66907;-67
2023/03/28 04:14:44;;;;;;;4.30;1.20;;;;;;;-3.75;93.95;99420.75;105830;1291;73627;-68
2023/03/28 04:17:51;;;;;;;7.00;1.80;;;;;;;-3.81;94.37;99428.02;106060;1290;57350;-65
2023/03/28 04:20:42;;;;;;;5.90;1.60;;;;;;;-3.83;94.27;99430.16;106059;1291;60268;-66
2023/03/28 04:23:31;;;;;;;5.00;1.50;;;;;;;-3.85;94.29;99432.64;106089;1291;70827;-69
2023/03/28 04:26:25;;;;;;;5.80;1.90;;;;;;;-3.89;93.99;99436.39;105827;1297;69345;-69
2023/03/28 04:29:31;;;;;;;5.30;1.60;;;;;;;-3.90;93.86;99442.84;105735;1293;74096;-69
2023/03/28 04:32:40;;;;;;;5.70;1.20;;;;;;;-3.93;93.62;99444.14;105843;1293;57450;-66
2023/03/28 04:35:29;;;;;;;4.60;1.20;;;;;;;-3.95;93.37;99447.30;105898;1293;60286;-65
2023/03/28 04:38:16;;;;;;;5.10;1.40;;;;;;;-3.97;93.17;99446.84;105817;1293;70066;-69
2023/03/28 04:41:08;;;;;;;5.10;1.50;;;;;;;-4.01;92.73;99450.42;105860;1293;67885;-68
2023/03/28 04:44:15;;;;;;;7.60;2.00;;;;;;;-4.06;92.29;99449.70;106028;1292;72851;-68
2023/03/28 04:47:11;;;;;;;6.40;1.70;;;;;;;-4.11;91.81;99453.11;105956;1292;57547;-69
2023/03/28 04:49:58;;;;;;;6.20;1.50;;;;;;;-4.15;91.51;99453.03;105965;1292;58792;-68
2023/03/28 04:52:45;;;;;;;7.20;1.90;;;;;;;-4.16;91.21;99450.48;105242;1292;1002590;-66
2023/03/28 04:55:34;;;;;;;6.60;2.00;;;;;;;-4.18;90.81;99456.25;105216;1292;1002398;-69
2023/03/28 04:58:29;;;;;;;6.30;1.90;;;;;;;-4.17;90.57;99461.23;106042;1291;71487;-65
2023/03/28 05:01:16;;;;;;;5.80;1.60;;;;;;;-4.10;90.68;99463.65;106096;1291;57218;-66
2023/03/28 05:04:26;;;;;;;7.00;1.90;;;;;;;-3.93;90.37;99472.22;106007;1291;60192;-66
2023/03/28 05:07:13;;;;;;;6.90;2.30;;;;;;;-3.81;89.89;99473.78;105966;1290;72225;-69
2023/03/28 05:10:00;;;;;;;5.40;1.80;;;;;;;-3.70;88.93;99480.41;106145;1290;67950;-67
2023/03/28 05:12:52;;;;;;;6.40;1.80;;;;;;;-3.58;87.72;99480.58;106109;1291;72506;-67
2023/03/28 05:15:41;;;;;;;9.40;2.20;;;;;;;-3.47;87.51;99488.59;106100;1290;57919;-68
2023/03/28 05:18:40;;;;;;;7.20;2.40;;;;;;;-3.41;86.94;99488.41;105971;1291;60266;-65
2023/03/28 05:21:28;;;;;;;7.90;2.20;;;;;;;-3.33;86.71;99486.60;106241;1288;72394;-68
2023/03/28 05:24:14;;;;;;;6.50;2.20;;;;;;;-3.21;86.08;99491.81;106268;1288;66577;-67
2023/03/28 05:27:01;;;;;;;6.90;1.90;;;;;;;-3.16;85.73;99493.04;106376;1286;72729;-67
2023/03/28 05:29:48;;;;;;;6.50;2.00;;;;;;;-3.19;84.74;99498.85;106362;1286;57237;-67
2023/03/28 05:32:36;;;;;;;7.10;2.20;;;;;;;-3.21;84.73;99502.23;106370;1286;59037;-70
2023/03/28 05:35:24;;;;;;;6.40;1.80;;;;;;;-3.23;84.56;99500.03;106293;1289;70907;-68
2023/03/28 05:38:15;;;;;;;7.00;2.00;;;;;;;-3.19;84.49;99505.30;106585;1286;67171;-68
2023/03/28 05:41:02;;;;;;;7.50;1.90;;;;;;;-3.14;84.06;99505.65;106427;1286;72734;-67
2023/03/28 05:43:49;;;;;;;6.40;1.70;;;;;;;-3.11;83.68;99506.27;106435;1286;58161;-67
2023/03/28 05:46:44;;;;;;;6.80;2.20;;;;;;;-3.13;83.17;99509.61;106280;1288;57909;-66
2023/03/28 05:49:31;;;;;;;7.30;2.40;;;;;;;-3.04;83.48;99518.36;106540;1286;72369;-69
2023/03/28 05:52:18;;;;;;;6.60;2.30;;;;;;;-2.81;83.83;99517.14;106399;1286;68404;-67
2023/03/28 05:55:06;;;;;;;8.00;2.50;;;;;;;-2.69;84.27;99525.27;106339;1287;71121;-68
2023/03/28 05:57:53;;;;;;;8.00;2.00;;;;;;;-2.71;84.80;99526.88;106408;1286;57035;-69
2023/03/28 06:00:44;;;;;;;7.50;2.10;;;;;;;-2.69;84.92;99523.04;106381;1287;59212;-69
2023/03/28 06:03:32;;;;;;;8.40;2.30;;;;;;;-2.73;84.29;99527.84;106337;1286;71090;-67
2023/03/28 06:06:24;;;;;;;7.50;1.80;;;;;;;-2.80;84.15;99538.11;106334;1286;66591;-65
2023/03/28 06:09:11;;;;;;;7.00;2.10;;;;;;;-2.82;84.35;99538.88;106262;1286;72917;-68
2023/03/28 06:12:09;;;;;;;7.60;1.90;;;;;;;-2.82;83.91;99543.05;106371;1286;57311;-66
2023/03/28 06:14:59;;;;;;;7.00;2.40;;;;;;;-2.62;84.61;99542.76;106471;1286;59365;-67
2023/03/28 06:17:51;;;;;;;7.70;2.30;;;;;;;-2.29;83.38;99544.14;105492;1286;1002413;-69
2023/03/28 06:20:37;;;;;;;7.10;2.40;;;;;;;-2.26;82.23;99546.64;106431;1287;67803;-69
2023/03/28 06:23:24;;;;;;;6.30;1.90;;;;;;;-2.25;81.82;99548.33;106537;1286;72815;-69
2023/03/28 06:26:11;;;;;;;6.50;1.80;;;;;;;-2.24;80.88;99549.00;106286;1289;59335;-66
2023/03/28 06:29:00;;;;;;;6.50;1.90;;;;;;;-2.19;80.68;99556.66;106377;1287;59475;-64
2023/03/28 06:32:00;;;;;;;7.50;2.20;;;;;;;-2.07;79.99;99564.64;106447;1286;72266;-68
2023/03/28 06:34:47;;;;;;;6.60;2.10;;;;;;;-1.63;78.61;99567.11;106286;1287;69020;-66
2023/03/28 06:37:33;;;;;;;8.20;2.40;;;;;;;-0.75;77.19;99565.73;106352;1286;72057;-67
2023/03/28 06:40:22;;;;;;;6.80;2.20;;;;;;;-0.28;75.96;99570.70;106424;1286;57393;-68
2023/03/28 06:43:09;;;;;;;6.60;2.00;;;;;;;-0.65;77.16;99572.50;106361;1286;59045;-66
2023/03/28 06:46:01;;;;;;;7.50;2.20;;;;;;;-0.79;77.46;99582.27;106322;1290;73623;-68
2023/03/28 06:48:49;;;;;;;7.70;2.50;;;;;;;-0.36;77.07;99580.95;106464;1287;66682;-65
2023/03/28 06:51:54;;;;;;;7.90;2.10;;;;;;;-0.32;77.70;99587.45;106446;1286;72718;-68
2023/03/28 06:54:40;;;;;;;9.10;2.60;;;;;;;-0.26;75.89;99590.50;106435;1286;56997;-66
2023/03/28 06:57:27;;;;;;;7.30;2.40;;;;;;;-0.37;74.54;99600.68;106406;1286;58844;-65
2023/03/28 07:00:22;;;;;;;9.20;2.90;;;;;;;-0.01;74.20;99601.65;106371;1286;72056;-66
2023/03/28 07:03:31;;;;;;;7.60;2.30;;;;;;;0.00;74.74;99607.36;106552;1286;69009;-64
2023/03/28 07:06:18;;;;;;;6.20;2.10;;;;;;;-0.18;75.66;99615.25;106331;1286;72758;-66
2023/03/28 07:09:04;;;;;;;8.50;2.30;;;;;;;-0.13;75.92;99616.65;106413;1286;57034;-67
2023/03/28 07:12:14;;;;;;;7.40;2.20;;;;;;;-0.37;76.07;99625.46;106433;1286;58809;-69
2023/03/28 07:15:01;;;;;;;7.70;2.10;;;;;;;-0.67;76.61;99627.14;106353;1286;73271;-65
2023/03/28 07:17:48;;;;;;;5.50;1.80;;;;;;;-0.88;77.61;99627.73;106305;1289;65733;-66
2023/03/28 07:20:38;;;;;;;7.30;2.00;;;;;;;-0.89;77.41;99629.02;105458;1289;1002877;-64
2023/03/28 07:23:25;;;;;;;6.20;1.80;;;;;;;-0.74;77.22;99631.91;106250;1289;58720;-68
2023/03/28 07:26:14;;;;;;;6.50;1.70;;;;;;;-0.82;76.14;99635.54;105521;1288;1002535;-68
2023/03/28 07:29:01;;;;;;;6.40;1.80;;;;;;;-0.75;75.45;99641.19;106294;1289;73208;-67
2023/03/28 07:31:48;;;;;;;7.00;2.20;;;;;;;0.15;74.35;99641.30;106214;1289;66681;-68
2023/03/28 07:34:35;;;;;;;7.00;1.90;;;;;;;1.29;72.35;99634.90;106254;1289;72542;-66
2023/03/28 07:37:22;;;;;;;6.40;1.90;;;;;;;3.26;67.28;99635.92;105864;1289;204872;-66
2023/03/28 07:40:23;;;;;;;5.70;1.70;;;;;;;4.74;60.08;99634.75;106102;1289;60131;-69
2023/03/28 07:43:10;;;;;;;6.80;1.70;;;;;;;5.36;55.93;99637.99;106250;1289;72247;-70
2023/03/28 07:46:02;;;;;;;6.70;2.10;;;;;;;6.45;51.28;99631.02;106337;1289;67817;-70
2023/03/28 07:48:49;;;;;;;7.00;1.70;;;;;;;7.40;49.56;99634.65;106386;1286;72691;-69
2023/03/28 07:51:36;;;;;;;6.60;1.90;;;;;;;7.32;48.11;99638.40;106304;1286;58021;-67
2023/03/28 07:54:23;;;;;;;6.60;1.90;;;;;;;6.53;48.68;99651.38;106359;1287;58317;-66
2023/03/28 07:57:10;;;;;;;7.50;2.00;;;;;;;6.09;48.98;99661.05;106373;1286;73342;-66
2023/03/28 08:00:16;;;;;;;6.70;1.70;;;;;;;6.54;48.83;99656.48;105608;1286;1002409;-69
2023/03/28 08:03:09;;;;;;;7.00;2.10;;;;;;;7.35;47.18;99658.10;106323;1286;73698;-68
2023/03/28 08:06:01;;;;;;;6.90;2.10;;;;;;;8.66;43.90;99654.95;106317;1286;58051;-69
2023/03/28 08:08:49;;;;;;;6.60;1.80;;;;;;;9.30;41.71;99661.56;106265;1286;58843;-71
2023/03/28 08:11:51;;;;;;;6.40;1.80;;;;;;;8.30;41.98;99666.79;106400;1286;72370;-70
2023/03/28 08:14:38;;;;;;;6.00;2.00;;;;;;;8.51;42.84;99674.98;106450;1286;67856;-72
2023/03/28 08:17:25;;;;;;;6.90;2.10;;;;;;;9.80;41.46;99670.67;106254;1286;72998;-71
2023/03/28 08:20:12;;;;;;;8.00;3.00;;;;;;;11.12;39.49;99671.24;106429;1286;57226;-66
2023/03/28 08:23:17;;;;;;;6.40;1.90;;;;;;;11.72;35.98;99673.20;106409;1289;59003;-70
2023/03/28 08:26:24;;;;;;;5.70;1.50;;;;;;;11.81;34.16;99672.23;106487;1286;70910;-67
2023/03/28 08:29:12;;;;;;;5.70;1.40;;;;;;;11.85;34.08;99673.17;106314;1286;67734;-67
2023/03/28 08:31:59;;;;;;;7.90;2.30;;;;;;;12.09;33.65;99672.41;106398;1286;73723;-67
2023/03/28 08:34:46;;;;;;;7.10;1.80;;;;;;;11.01;34.52;99680.05;106496;1286;58117;-70
2023/03/28 08:37:37;;;;;;;6.00;1.50;;;;;;;9.45;37.00;99693.85;106410;1288;60188;-67
2023/03/28 08:40:27;;;;;;;5.90;1.60;;;;;;;7.99;38.92;99703.91;106391;1286;72169;-70
2023/03/28 08:44:02;;;;;;;8.10;2.00;;;;;;;6.55;41.91;99707.13;106444;1286;67792;-70
2023/03/28 08:47:02;;;;;;;6.20;1.60;;;;;;;5.26;45.77;99711.46;106439;1286;72702;-71
2023/03/28 08:50:14;;;;;;;7.00;2.50;;;;;;;4.55;48.29;99722.66;106408;1286;56885;-72
2023/03/28 08:53:03;;;;;;;7.70;3.00;;;;;;;4.12;49.05;99724.94;106357;1286;59080;-71
2023/03/28 08:55:55;;;;;;;8.00;1.90;;;;;;;3.49;51.42;99741.72;106487;1286;72323;-71
2023/03/28 08:59:00;;;;;;;5.90;1.70;;;;;;;2.82;54.78;99755.52;106438;1286;67770;-67
2023/03/28 09:01:48;;;;;;;5.40;1.50;;;;;;;2.13;55.89;99751.36;106492;1286;71191;-66
2023/03/28 09:04:36;;;;;;;5.90;1.80;;;;;;;1.98;57.03;99752.79;106412;1286;57002;-69
2023/03/28 09:07:54;;;;;;;5.10;1.50;;;;;;;3.44;53.38;99744.98;106447;1288;58900;-67
2023/03/28 09:11:18;;;;;;;6.80;1.70;;;;;;;4.03;49.58;99751.80;106568;1286;71222;-68
2023/03/28 09:14:54;;;;;;;6.70;1.90;;;;;;;3.42;49.31;99762.27;105846;1294;67947;-67
2023/03/28 09:18:05;;;;;;;6.10;1.70;;;;;;;3.91;48.01;99759.46;105866;1294;72832;-68
2023/03/28 09:20:53;;;;;;;7.20;1.90;;;;;;;4.95;47.22;99759.21;105792;1298;57337;-68
2023/03/28 09:24:00;;;;;;;6.10;1.40;;;;;;;5.78;45.36;99765.45;105738;1294;58798;-71
2023/03/28 09:27:15;;;;;;;5.80;2.10;;;;;;;6.96;42.15;99766.89;105820;1294;72249;-68
2023/03/28 09:30:28;;;;;;;5.30;1.40;;;;;;;7.09;42.87;99777.80;105770;1294;66616;-67
2023/03/28 09:33:27;;;;;;;5.80;1.40;;;;;;;6.34;44.43;99787.32;105800;1294;72593;-69
2023/03/28 09:36:25;;;;;;;5.80;1.30;;;;;;;5.72;45.69;99785.89;105558;1295;57143;-68
2023/03/28 09:39:48;;;;;;;5.90;1.30;;;;;;;5.05;46.72;99780.42;105690;1294;61165;-70
2023/03/28 09:43:00;;;;;;;6.30;1.50;;;;;;;4.49;46.83;99789.25;104885;1294;1002215;-69
2023/03/28 09:46:12;;;;;;;5.90;2.20;;;;;;;3.93;47.06;99792.70;105753;1294;66776;-65
2023/03/28 09:48:58;;;;;;;5.70;1.60;;;;;;;5.55;44.36;99787.27;105771;1294;73791;-69
2023/03/28 09:51:55;;;;;;;7.60;1.90;;;;;;;4.97;43.24;99793.20;106214;1291;57279;-71
2023/03/28 09:54:42;;;;;;;7.30;2.20;;;;;;;4.06;45.33;99798.13;105683;1288;1002333;-66
2023/03/28 09:58:03;;;;;;;5.60;1.60;;;;;;;3.36;46.98;99803.45;106483;1286;72193;-64
2023/03/28 10:00:53;;;;;;;6.20;1.90;;;;;;;2.86;49.33;99815.60;106417;1289;66248;-66
2023/03/28 10:03:59;;;;;;;6.70;1.80;;;;;;;3.55;50.12;99812.80;105644;1286;1002287;-69
2023/03/28 10:07:28;;;;;;;5.20;1.50;;;;;;;4.40;47.31;99818.59;106549;1286;56912;-67
2023/03/28 10:10:22;;;;;;;6.40;1.60;;;;;;;6.43;43.63;99820.34;106375;1286;59205;-67
2023/03/28 10:13:13;;;;;;;7.00;1.70;;;;;;;8.96;39.97;99810.83;106328;1286;72041;-70
2023/03/28 10:16:03;;;;;;;5.80;1.60;;;;;;;10.99;34.44;99806.95;106431;1289;68001;-70
2023/03/28 10:19:24;;;;;;;5.30;1.30;;;;;;;12.29;32.25;99796.22;106471;1286;72631;-71
2023/03/28 10:22:25;;;;;;;6.20;1.30;;;;;;;13.12;30.39;99797.77;106296;1286;57022;-67
2023/03/28 10:25:41;;;;;;;5.20;1.30;;;;;;;13.05;31.18;99795.89;106423;1286;59082;-67
2023/03/28 10:28:35;;;;;;;6.50;1.50;;;;;;;11.52;32.35;99817.41;106417;1286;72204;-69
2023/03/28 10:31:29;;;;;;;5.30;1.30;;;;;;;10.22;34.52;99829.30;106405;1286;67831;-65
2023/03/28 10:34:30;;;;;;;6.60;1.60;;;;;;;8.80;36.66;99834.16;106378;1286;73731;-68
2023/03/28 10:37:55;;;;;;;5.30;1.50;;;;;;;8.57;37.36;99838.31;106432;1286;57408;-69
2023/03/28 10:41:02;;;;;;;6.50;1.50;;;;;;;8.79;37.39;99840.61;106459;1286;58816;-66
2023/03/28 10:44:39;;;;;;;5.10;1.40;;;;;;;8.75;36.85;99847.38;106457;1286;71662;-69
2023/03/28 10:47:30;;;;;;;5.80;1.60;;;;;;;7.20;38.90;99854.49;106466;1286;66505;-67
2023/03/28 10:50:43;;;;;;;6.10;1.30;;;;;;;6.72;40.25;99854.12;106408;1286;71444;-68
2023/03/28 10:54:07;;;;;;;5.30;1.30;;;;;;;7.09;40.22;99856.46;106378;1287;57346;-69
2023/03/28 10:57:27;;;;;;;5.30;1.40;;;;;;;7.13;40.76;99857.97;106342;1286;60185;-69
2023/03/28 11:00:21;;;;;;;5.80;1.80;;;;;;;6.20;43.15;99864.66;106394;1286;73067;-67
2023/03/28 11:03:31;;;;;;;5.00;1.50;;;;;;;5.01;46.17;99872.64;106431;1286;67733;-70
2023/03/28 11:06:24;;;;;;;5.50;1.60;;;;;;;4.38;46.66;99870.00;106402;1286;72862;-68
2023/03/28 11:09:30;;;;;;;6.50;1.70;;;;;;;4.35;46.94;99887.38;106377;1286;58143;-65
2023/03/28 11:13:07;;;;;;;5.10;1.40;;;;;;;3.40;48.34;99904.60;106294;1286;61696;-69
2023/03/28 11:16:30;;;;;;;7.20;3.20;;;;;;;2.14;54.05;99919.18;105654;1286;1002894;-68
2023/03/28 11:19:49;;;;;;;6.20;1.50;;;;;;;1.38;57.26;99912.17;105687;1286;1002442;-67
2023/03/28 11:23:01;;;;;;;9.80;2.00;;;;;;;1.19;58.61;99910.32;106351;1286;71467;-68
2023/03/28 11:26:14;;;;;;;5.80;1.40;;;;;;;1.44;58.51;99916.27;106493;1286;57425;-66
2023/03/28 11:29:48;;;;;;;6.40;1.50;;;;;;;1.27;57.55;99916.99;106497;1286;60347;-72
2023/03/28 11:32:51;;;;;;;6.20;1.60;;;;;;;1.26;56.16;99920.15;106585;1286;74093;-66
2023/03/28 11:35:47;;;;;;;5.80;1.50;;;;;;;2.84;52.17;99916.25;106779;1286;67652;-71
2023/03/28 11:38:43;;;;;;;6.30;1.70;;;;;;;4.25;46.93;99903.33;106697;1286;71437;-66
2023/03/28 11:41:38;;;;;;;4.90;1.40;;;;;;;5.51;41.45;99907.55;106487;1286;57340;-66
2023/03/28 11:45:06;;;;;;;5.70;1.30;;;;;;;6.72;39.97;99910.02;106373;1286;60070;-69
2023/03/28 11:48:12;;;;;;;5.40;1.50;;;;;;;7.64;38.58;99910.36;106406;1286;73340;-70
2023/03/28 11:51:20;;;;;;;5.20;1.50;;;;;;;7.49;37.68;99925.29;106381;1286;68704;-66
2023/03/28 11:54:24;;;;;;;5.20;1.40;;;;;;;6.38;40.03;99941.96;104902;1286;1002476;-65
2023/03/28 11:57:21;;;;;;;5.60;1.40;;;;;;;5.04;44.83;99950.88;106331;1286;57511;-65
2023/03/28 12:00:40;;;;;;;5.60;1.60;;;;;;;4.42;48.45;99944.80;106404;1286;60257;-65
2023/03/28 12:03:46;;;;;;;6.10;1.70;;;;;;;4.63;48.68;99947.33;106351;1286;72031;-68
2023/03/28 12:07:15;;;;;;;6.00;1.40;;;;;;;4.18;46.84;99954.83;106396;1286;66848;-66
2023/03/28 12:10:35;;;;;;;5.60;1.70;;;;;;;3.35;48.92;99964.33;106289;1286;72779;-67
2023/03/28 12:13:33;;;;;;;5.50;1.50;;;;;;;2.96;50.00;99972.85;106317;1286;57416;-66
2023/03/28 12:16:37;;;;;;;5.40;1.40;;;;;;;2.64;51.01;99981.69;106359;1286;58924;-69
2023/03/28 12:19:39;;;;;;;5.20;1.50;;;;;;;2.20;53.48;99988.58;106347;1286;72287;-69
2023/03/28 12:22:49;;;;;;;6.20;2.00;;;;;;;1.92;55.30;99991.73;106380;1286;66656;-66
2023/03/28 12:26:06;;;;;;;6.30;1.40;;;;;;;1.62;56.20;99997.91;106450;1286;72831;-65
2023/03/28 12:28:57;;;;;;;6.20;1.70;;;;;;;1.47;56.44;100000.25;105670;1286;1002518;-67
2023/03/28 12:32:02;;;;;;;6.30;1.80;;;;;;;1.49;56.11;100001.23;106518;1286;57808;-65
2023/03/28 12:35:14;;;;;;;5.50;1.80;;;;;;;1.66;55.35;100010.50;106252;1286;73187;-67
2023/03/28 12:38:59;;;;;;;5.90;1.60;;;;;;;1.89;54.33;99998.30;106373;1286;69017;-66
2023/03/28 12:41:54;;;;;;;5.30;1.50;;;;;;;2.36;52.66;100004.02;106397;1286;71036;-68
2023/03/28 12:45:15;;;;;;;6.30;1.60;;;;;;;2.49;52.36;100002.89;106328;1286;57546;-65
2023/03/28 12:48:16;;;;;;;6.40;1.80;;;;;;;2.64;51.83;100004.82;106340;1287;59083;-67
2023/03/28 12:51:14;;;;;;;7.60;2.60;;;;;;;2.83;50.40;100005.18;106400;1286;74138;-68
2023/03/28 12:54:16;;;;;;;7.70;2.30;;;;;;;3.20;49.64;100010.27;106397;1287;65808;-67
2023/03/28 12:57:08;;;;;;;7.30;2.20;;;;;;;3.50;48.51;100012.02;106410;1286;73915;-69
2023/03/28 13:00:05;;;;;;;6.00;1.70;;;;;;;3.32;47.68;100006.02;106309;1286;57418;-69
2023/03/28 13:03:39;;;;;;;6.50;1.80;;;;;;;3.18;48.21;100019.88;106307;1286;60402;-66
2023/03/28 13:07:22;;;;;;;5.50;1.50;;;;;;;2.97;47.61;100021.71;106598;1286;73085;-65
2023/03/28 13:10:32;;;;;;;6.40;1.80;;;;;;;2.71;46.99;100026.41;105869;1294;68259;-67
2023/03/28 13:14:02;;;;;;;6.50;1.80;;;;;;;2.43;45.10;100029.77;105806;1294;72956;-67
2023/03/28 13:17:14;;;;;;;10.80;1.80;;;;;;;2.25;45.23;100036.17;105823;1294;57471;-68
2023/03/28 13:20:15;;;;;;;5.70;1.60;;;;;;;2.16;45.34;100039.18;105734;1294;58307;-68
2023/03/28 13:23:06;;;;;;;5.50;1.60;;;;;;;2.01;45.20;100041.04;105813;1294;73212;-69
2023/03/28 13:26:01;;;;;;;5.60;1.70;;;;;;;1.81;45.28;100048.20;105810;1294;67853;-69
2023/03/28 13:28:58;;;;;;;5.20;1.40;;;;;;;1.57;44.62;100046.55;105770;1294;71189;-66
2023/03/28 13:31:46;;;;;;;5.00;1.40;;;;;;;1.49;45.08;100057.34;105426;1299;58050;-66
2023/03/28 13:34:34;;;;;;;6.00;1.60;;;;;;;1.44;44.52;100048.66;105518;1299;59213;-68
2023/03/28 13:37:36;;;;;;;5.60;1.10;;;;;;;1.42;44.97;100058.02;105539;1299;73029;-67
2023/03/28 13:40:41;;;;;;;5.10;1.80;;;;;;;1.45;45.38;100064.31;105452;1299;65633;-67
2023/03/28 13:43:56;;;;;;;5.70;1.40;;;;;;;1.53;45.49;100054.92;105536;1299;72550;-69
2023/03/28 13:46:47;;;;;;;4.70;1.20;;;;;;;1.53;45.28;100053.70;105966;1291;58223;-69
2023/03/28 13:50:33;;;;;;;6.00;1.50;;;;;;;1.43;44.85;100059.88;106102;1291;60427;-67